Terminal Aerodrome Forecast
Issued by NWS Wilmington, OH

Current Version | Previous Version | Graphics & Text | Print | Product List | Glossary On
Versions: 1 2 3 4 5 6 7 8 9 10 11 12 13 14 15 16 17 18 19 20 21 22
000
FTUS41 KILN 221600 AAC
TAFILN
TAF AMD
KILN 221614Z 2216/2312 01012KT P6SM OVC015
     FM221800 01012KT P6SM BKN035
     FM222000 35010KT P6SM SCT035
     FM230100 01004KT P6SM SKC
      TEMPO 2309/2311 3SM BR=

USA.gov is the U.S. government's official web portal to all federal, state and local government web resources and services.